createdAt,value
2022-10-18T00:01:23.315Z,100111.27
2022-10-18T00:03:51.003Z,100108.70
2022-10-18T00:06:18.643Z,100105.45
2022-10-18T00:08:46.296Z,100103.12
2022-10-18T00:11:14.001Z,100103.51
2022-10-18T00:13:43.435Z,100102.88
2022-10-18T00:16:16.720Z,100106.23
2022-10-18T00:18:48.273Z,100101.85
2022-10-18T00:21:19.893Z,100101.16
2022-10-18T00:23:51.062Z,100098.83
2022-10-18T00:26:26.518Z,100094.44
2022-10-18T00:29:01.653Z,100094.65
2022-10-18T00:31:38.578Z,100089.48
2022-10-18T00:34:11.238Z,100087.89
2022-10-18T00:36:41.304Z,100081.03
2022-10-18T00:39:14.212Z,100084.84
2022-10-18T00:41:41.987Z,100082.59
2022-10-18T00:44:12.641Z,100079.77
2022-10-18T00:46:48.276Z,100080.12
2022-10-18T00:49:21.798Z,100077.98
2022-10-18T00:52:00.382Z,100074.02
2022-10-18T00:54:32.750Z,100072.96
2022-10-18T00:57:02.421Z,100071.02
2022-10-18T00:59:32.280Z,100074.83
2022-10-18T01:02:04.487Z,100069.59
2022-10-18T01:04:34.109Z,100065.01
2022-10-18T01:07:20.117Z,100059.26
2022-10-18T01:10:01.602Z,100055.45
2022-10-18T01:12:47.617Z,100057.38
2022-10-18T01:15:39.075Z,100058.76
2022-10-18T01:18:30.249Z,100051.91
2022-10-18T01:21:16.300Z,100044.41
2022-10-18T01:24:22.093Z,100043.32
2022-10-18T01:27:16.937Z,100038.91
2022-10-18T01:29:53.638Z,100041.64
2022-10-18T01:32:34.426Z,100040.21
2022-10-18T01:35:07.777Z,100035.31
2022-10-18T01:37:38.270Z,100032.21
2022-10-18T01:40:09.281Z,100034.33
2022-10-18T01:42:37.059Z,100032.03
2022-10-18T01:45:07.955Z,100032.10
2022-10-18T01:47:38.385Z,100028.13
2022-10-18T01:50:06.908Z,100028.00
2022-10-18T01:52:36.535Z,100024.44
2022-10-18T01:55:06.568Z,100021.89
2022-10-18T01:57:40.736Z,100023.64
2022-10-18T02:00:25.086Z,100023.59
2022-10-18T02:03:13.984Z,100021.95
2022-10-18T02:06:16.888Z,100018.65
2022-10-18T02:08:56.960Z,100016.79
2022-10-18T02:11:28.344Z,100015.41
2022-10-18T02:14:09.111Z,100011.80
2022-10-18T02:16:45.948Z,100008.88
2022-10-18T02:19:29.892Z,100005.73
2022-10-18T02:22:00.730Z,100003.85
2022-10-18T02:24:38.069Z,100003.10
2022-10-18T02:27:07.675Z,100000.15
2022-10-18T02:29:37.669Z,100001.03
2022-10-18T02:32:26.459Z,99998.57
2022-10-18T02:35:04.705Z,99996.75
2022-10-18T02:37:40.469Z,99995.25
2022-10-18T02:40:10.613Z,99995.80
2022-10-18T02:42:48.775Z,99992.14
2022-10-18T02:45:18.000Z,99989.98
2022-10-18T02:47:45.771Z,99991.10
2022-10-18T02:50:15.371Z,99994.79
2022-10-18T02:52:46.557Z,99994.42
2022-10-18T02:55:14.236Z,99994.98
2022-10-18T02:57:41.923Z,99994.05
2022-10-18T03:00:10.703Z,99992.40
2022-10-18T03:02:38.386Z,99992.88
2022-10-18T03:05:06.190Z,99989.96
2022-10-18T03:07:34.013Z,99989.81
2022-10-18T03:10:05.590Z,99982.77
2022-10-18T03:12:33.461Z,99978.55
2022-10-18T03:15:01.200Z,99979.19
2022-10-18T03:17:29.031Z,99973.57
2022-10-18T03:19:58.335Z,99976.06
2022-10-18T03:25:01.417Z,99976.84
2022-10-18T03:27:29.352Z,99985.75
2022-10-18T03:30:01.547Z,99989.21
2022-10-18T03:32:31.623Z,99982.41
2022-10-18T03:35:01.196Z,99983.40
2022-10-18T03:37:28.859Z,99982.98
2022-10-18T03:39:56.597Z,99987.41
2022-10-18T03:42:24.331Z,99992.33
2022-10-18T03:44:52.039Z,99992.55
2022-10-18T03:47:21.683Z,99991.36
2022-10-18T03:49:52.001Z,99990.06
2022-10-18T03:52:22.856Z,99989.95
2022-10-18T03:54:50.540Z,99988.94
2022-10-18T03:57:20.041Z,99991.70
2022-10-18T03:59:48.806Z,99995.41
2022-10-18T04:02:16.487Z,99991.25
2022-10-18T04:04:44.147Z,99992.42
2022-10-18T04:07:11.811Z,99991.52
2022-10-18T04:09:39.539Z,99994.53
2022-10-18T04:12:07.239Z,99995.27
2022-10-18T04:14:34.860Z,99997.84
2022-10-18T04:17:04.537Z,99996.04
2022-10-18T04:19:34.161Z,99996.53
2022-10-18T04:22:03.672Z,100001.90
2022-10-18T04:24:33.278Z,100002.80
2022-10-18T04:27:00.926Z,100003.70
2022-10-18T04:29:28.574Z,100006.20
2022-10-18T04:31:56.285Z,100008.63
2022-10-18T04:34:24.355Z,100009.94
2022-10-18T04:36:52.207Z,100010.39
2022-10-18T04:39:22.030Z,100006.35
2022-10-18T04:41:49.685Z,100013.05
2022-10-18T04:44:17.334Z,100011.35
2022-10-18T04:46:45.055Z,100012.95
2022-10-18T04:49:12.835Z,100010.89
2022-10-18T04:51:40.616Z,100006.39
2022-10-18T04:54:08.329Z,100008.23
2022-10-18T04:56:36.150Z,100005.79
2022-10-18T04:59:03.935Z,100006.27
2022-10-18T05:01:31.762Z,100004.38
2022-10-18T05:03:59.587Z,100003.61
2022-10-18T05:06:27.533Z,100004.41
2022-10-18T05:08:57.010Z,100005.11
2022-10-18T05:11:24.700Z,100007.31
2022-10-18T05:13:52.447Z,100006.64
2022-10-18T05:16:20.106Z,100006.36
2022-10-18T05:18:48.576Z,100008.16
2022-10-18T05:21:18.178Z,100004.90
2022-10-18T05:23:47.723Z,100009.91
2022-10-18T05:26:15.454Z,100007.70
2022-10-18T05:28:43.144Z,100007.69
2022-10-18T05:31:12.797Z,100013.14
2022-10-18T05:33:40.605Z,100017.02
2022-10-18T05:36:10.397Z,100016.86
2022-10-18T05:38:44.300Z,100013.81
2022-10-18T05:41:14.218Z,100014.29
2022-10-18T05:43:41.904Z,100017.95
2022-10-18T05:46:15.456Z,100013.83
2022-10-18T05:48:44.716Z,100014.99
2022-10-18T05:51:14.528Z,100019.94
2022-10-18T05:53:42.246Z,100023.02
2022-10-18T05:56:12.167Z,100020.98
2022-10-18T05:58:42.768Z,100019.49
2022-10-18T06:01:11.484Z,100024.91
2022-10-18T06:03:39.218Z,100027.86
2022-10-18T06:06:10.685Z,100032.36
2022-10-18T06:08:41.964Z,100031.36
2022-10-18T06:11:15.442Z,100036.55
2022-10-18T06:13:48.517Z,100038.00
2022-10-18T06:16:19.992Z,100037.34
2022-10-18T06:18:50.776Z,100040.90
2022-10-18T06:21:21.007Z,100045.20
2022-10-18T06:23:51.826Z,100040.73
2022-10-18T06:26:21.729Z,100046.70
2022-10-18T06:28:49.642Z,100043.95
2022-10-18T06:31:18.560Z,100046.00
2022-10-18T06:33:48.515Z,100047.04
2022-10-18T06:36:22.748Z,100049.79
2022-10-18T06:38:51.720Z,100054.13
2022-10-18T06:41:22.076Z,100054.41
2022-10-18T06:43:53.791Z,100053.44
2022-10-18T06:46:21.558Z,100055.97
2022-10-18T06:48:51.005Z,100056.58
2022-10-18T06:51:21.649Z,100054.91
2022-10-18T06:53:59.617Z,100052.06
2022-10-18T06:56:36.231Z,100050.89
2022-10-18T06:59:03.922Z,100051.59
2022-10-18T07:01:33.714Z,100052.06
2022-10-18T07:04:04.404Z,100048.80
2022-10-18T07:06:33.785Z,100051.89
2022-10-18T07:09:05.592Z,100054.06
2022-10-18T07:11:33.317Z,100055.94
2022-10-18T07:14:04.971Z,100052.77
2022-10-18T07:16:36.191Z,100052.33
2022-10-18T07:19:03.872Z,100047.05
2022-10-18T07:21:32.358Z,100044.71
2022-10-18T07:24:01.952Z,100044.83
2022-10-18T07:26:33.434Z,100043.61
2022-10-18T07:29:07.849Z,100043.81
2022-10-18T07:31:38.804Z,100040.13
2022-10-18T07:34:10.723Z,100039.79
2022-10-18T07:36:38.554Z,100038.18
2022-10-18T07:39:07.152Z,100038.70
2022-10-18T07:41:35.537Z,100034.67
2022-10-18T07:44:05.959Z,100031.23
2022-10-18T07:46:33.818Z,100030.27
2022-10-18T07:49:03.276Z,100031.05
2022-10-18T07:51:33.028Z,100029.88
2022-10-18T07:54:00.755Z,100026.70
2022-10-18T07:56:28.606Z,100027.70
2022-10-18T07:58:58.080Z,100027.59
2022-10-18T08:01:27.669Z,100027.64
2022-10-18T08:03:55.405Z,100027.46
2022-10-18T08:06:24.927Z,100026.76
2022-10-18T08:08:53.972Z,100026.55
2022-10-18T08:11:25.120Z,100031.40
2022-10-18T08:13:54.949Z,100028.27
2022-10-18T08:16:27.915Z,100021.89
2022-10-18T08:18:59.164Z,100015.58
2022-10-18T08:21:27.150Z,100011.30
2022-10-18T08:23:56.643Z,100008.62
2022-10-18T08:26:26.148Z,100004.79
2022-10-18T08:28:54.352Z,100005.21
2022-10-18T08:31:28.281Z,100006.11
2022-10-18T08:33:58.138Z,100002.00
2022-10-18T08:36:25.835Z,100001.04
2022-10-18T08:38:53.523Z,99997.70
2022-10-18T08:41:45.923Z,99995.02
2022-10-18T08:44:30.021Z,99994.85
2022-10-18T08:47:08.732Z,99988.08
2022-10-18T08:49:52.384Z,99987.04
2022-10-18T08:52:45.227Z,99987.40
2022-10-18T08:55:20.993Z,99985.57
2022-10-18T08:57:49.236Z,99979.44
2022-10-18T09:00:19.655Z,99973.71
2022-10-18T09:03:14.389Z,99965.98
2022-10-18T09:05:53.363Z,99956.84
2022-10-18T09:08:30.041Z,99953.86
2022-10-18T09:11:12.207Z,99955.52
2022-10-18T09:13:57.275Z,99957.13
2022-10-18T09:16:54.386Z,99950.08
2022-10-18T09:19:56.641Z,99948.54
2022-10-18T09:22:57.950Z,99946.88
2022-10-18T09:25:46.746Z,99944.35
2022-10-18T09:28:23.302Z,99936.72
2022-10-18T09:31:12.119Z,99934.70
2022-10-18T09:33:58.901Z,99934.05
2022-10-18T09:36:35.814Z,99931.00
2022-10-18T09:39:16.111Z,99927.59
2022-10-18T09:41:50.204Z,99926.08
2022-10-18T09:44:41.443Z,99927.60
2022-10-18T09:47:21.827Z,99919.63
2022-10-18T09:50:01.984Z,99915.23
2022-10-18T09:52:48.717Z,99913.39
2022-10-18T09:55:25.102Z,99905.31
2022-10-18T09:57:58.773Z,99902.30
2022-10-18T10:00:33.750Z,99902.89
2022-10-18T10:03:08.137Z,99895.04
2022-10-18T10:05:35.808Z,99885.38
2022-10-18T10:08:05.916Z,99876.40
2022-10-18T10:10:38.315Z,99872.51
2022-10-18T10:13:09.154Z,99871.44
2022-10-18T10:15:38.299Z,99868.48
2022-10-18T10:18:26.371Z,99862.41
2022-10-18T10:20:59.704Z,99856.87
2022-10-18T10:23:44.690Z,99847.50
2022-10-18T10:26:32.193Z,99844.80
2022-10-18T10:29:00.746Z,99837.49
2022-10-18T10:31:31.924Z,99837.80
2022-10-18T10:34:28.866Z,99833.25
2022-10-18T10:36:56.818Z,99830.50
2022-10-18T10:39:25.514Z,99822.18
2022-10-18T10:41:58.782Z,99820.92
2022-10-18T10:44:35.525Z,99818.31
2022-10-18T10:47:06.890Z,99817.67
2022-10-18T10:49:48.093Z,99814.96
2022-10-18T10:52:29.082Z,99804.33
2022-10-18T10:55:11.406Z,99799.14
2022-10-18T10:57:55.901Z,99796.48
2022-10-18T11:00:45.241Z,99788.45
2022-10-18T11:03:34.743Z,99787.17
2022-10-18T11:06:26.434Z,99784.11
2022-10-18T11:08:59.149Z,99782.08
2022-10-18T11:11:35.592Z,99774.09
2022-10-18T11:14:27.076Z,99767.03
2022-10-18T11:17:21.751Z,99769.67
2022-10-18T11:20:10.737Z,99765.14
2022-10-18T11:22:49.106Z,99755.93
2022-10-18T11:25:18.506Z,99753.38
2022-10-18T11:28:01.676Z,99749.73
2022-10-18T11:30:53.549Z,99743.09
2022-10-18T11:33:42.931Z,99745.33
2022-10-18T11:37:09.741Z,99741.15
2022-10-18T11:40:08.242Z,99736.06
2022-10-18T11:43:03.559Z,99733.73
2022-10-18T11:45:50.711Z,99728.09
2022-10-18T11:48:46.201Z,99722.21
2022-10-18T11:51:50.324Z,99714.02
2022-10-18T11:55:10.079Z,99711.56
2022-10-18T11:58:03.845Z,99709.06
2022-10-18T12:00:50.987Z,99699.50
2022-10-18T12:03:28.726Z,99699.46
2022-10-18T12:06:01.895Z,99693.59
2022-10-18T12:08:35.648Z,99696.38
2022-10-18T12:11:15.247Z,99691.69
2022-10-18T12:13:57.007Z,99686.30
2022-10-18T12:16:50.058Z,99680.86
2022-10-18T12:19:27.626Z,99673.91
2022-10-18T12:22:07.472Z,99673.27
2022-10-18T12:24:37.926Z,99665.42
2022-10-18T12:27:06.064Z,99667.39
2022-10-18T12:29:53.383Z,99661.67
2022-10-18T12:32:38.499Z,99660.92
2022-10-18T12:35:19.669Z,99657.55
2022-10-18T12:38:17.859Z,99659.09
2022-10-18T12:40:54.454Z,99652.36
2022-10-18T12:43:38.573Z,99648.56
2022-10-18T12:46:13.827Z,99645.23
2022-10-18T12:48:50.650Z,99648.08
2022-10-18T12:51:22.462Z,99641.04
2022-10-18T12:53:57.109Z,99638.77
2022-10-18T12:56:27.581Z,99635.15
2022-10-18T12:59:15.899Z,99633.09
2022-10-18T13:01:52.982Z,99630.59
2022-10-18T13:04:28.574Z,99623.92
2022-10-18T13:06:58.225Z,99616.01
2022-10-18T13:09:36.980Z,99621.73
2022-10-18T13:12:10.624Z,99615.62
2022-10-18T13:15:13.364Z,99615.55
2022-10-18T13:18:18.412Z,99613.45
2022-10-18T13:21:10.126Z,99611.59
2022-10-18T13:24:13.634Z,99602.55
2022-10-18T13:30:03.072Z,99602.70
2022-10-18T13:32:57.606Z,99594.39
2022-10-18T13:35:49.135Z,99595.92
2022-10-18T13:38:38.337Z,99595.30
2022-10-18T13:41:12.628Z,99591.72
2022-10-18T13:44:22.405Z,99589.73
2022-10-18T13:46:50.183Z,99585.86
2022-10-18T13:49:30.997Z,99577.13
2022-10-18T13:52:40.479Z,99579.55
2022-10-18T13:55:29.714Z,99577.48
2022-10-18T13:58:25.212Z,99572.11
2022-10-18T14:01:14.374Z,99570.70
2022-10-18T14:04:21.677Z,99564.09
2022-10-18T14:06:52.312Z,99558.71
2022-10-18T14:09:40.227Z,99557.17
2022-10-18T14:12:27.799Z,99557.45
2022-10-18T14:15:03.839Z,99557.16
2022-10-18T14:17:46.984Z,99552.98
2022-10-18T14:20:29.373Z,99554.30
2022-10-18T14:23:27.200Z,99550.48
2022-10-18T14:26:29.863Z,99546.94
2022-10-18T14:29:18.834Z,99539.31
2022-10-18T14:31:56.431Z,99538.46
2022-10-18T14:34:24.121Z,99535.84
2022-10-18T14:36:51.972Z,99532.35
2022-10-18T14:39:26.730Z,99526.94
2022-10-18T14:41:58.092Z,99525.31
2022-10-18T14:44:31.685Z,99520.09
2022-10-18T14:47:15.577Z,99514.58
2022-10-18T14:49:45.990Z,99510.11
2022-10-18T14:52:17.365Z,99503.36
2022-10-18T14:54:47.280Z,99505.11
2022-10-18T14:57:33.951Z,99499.20
2022-10-18T15:00:29.858Z,99496.06
2022-10-18T15:03:00.581Z,99486.88
2022-10-18T15:05:28.386Z,99483.02
2022-10-18T15:08:00.186Z,99480.14
2022-10-18T15:10:33.692Z,99476.90
2022-10-18T15:13:10.175Z,99466.98
2022-10-18T15:15:41.914Z,99465.53
2022-10-18T15:18:23.061Z,99459.30
2022-10-18T15:21:12.263Z,99454.88
2022-10-18T15:23:39.928Z,99446.65
2022-10-18T15:26:14.434Z,99451.66
2022-10-18T15:28:54.353Z,99455.96
2022-10-18T15:31:31.932Z,99452.57
2022-10-18T15:34:20.387Z,99448.60
2022-10-18T15:36:52.205Z,99452.05
2022-10-18T15:39:31.281Z,99447.27
2022-10-18T15:42:02.625Z,99442.25
2022-10-18T15:44:46.559Z,99447.08
2022-10-18T15:47:17.827Z,99446.67
2022-10-18T15:49:45.490Z,99446.39
2022-10-18T15:52:33.943Z,99439.13
2022-10-18T15:55:30.909Z,99433.96
2022-10-18T15:58:20.482Z,99435.06
2022-10-18T16:00:50.684Z,99432.84
2022-10-18T16:03:22.306Z,99431.29
2022-10-18T16:06:00.633Z,99433.27
2022-10-18T16:08:38.205Z,99435.02
2022-10-18T16:11:09.307Z,99436.00
2022-10-18T16:13:37.155Z,99443.27
2022-10-18T16:16:05.131Z,99439.00
2022-10-18T16:18:36.063Z,99440.17
2022-10-18T16:21:03.925Z,99442.75
2022-10-18T16:23:34.605Z,99441.84
2022-10-18T16:26:02.383Z,99444.61
2022-10-18T16:28:32.973Z,99445.79
2022-10-18T16:31:04.252Z,99447.96
2022-10-18T16:33:32.489Z,99445.70
2022-10-18T16:36:00.629Z,99448.50
2022-10-18T16:38:35.531Z,99449.04
2022-10-18T16:41:07.366Z,99446.50
2022-10-18T16:43:35.603Z,99440.95
2022-10-18T16:46:07.861Z,99441.19
2022-10-18T16:48:37.686Z,99442.33
2022-10-18T16:51:05.627Z,99435.98
2022-10-18T16:53:35.439Z,99439.83
2022-10-18T16:56:12.595Z,99441.71
2022-10-18T16:58:41.442Z,99443.86
2022-10-18T17:01:14.209Z,99447.41
2022-10-18T17:03:44.257Z,99447.23
2022-10-18T17:06:26.605Z,99449.92
2022-10-18T17:08:56.280Z,99447.02
2022-10-18T17:11:29.408Z,99452.14
2022-10-18T17:13:57.427Z,99451.56
2022-10-18T17:16:30.075Z,99452.83
2022-10-18T17:19:02.220Z,99455.63
2022-10-18T17:21:34.684Z,99451.31
2022-10-18T17:24:08.506Z,99446.14
2022-10-18T17:26:36.296Z,99443.55
2022-10-18T17:29:08.353Z,99442.30
2022-10-18T17:31:36.280Z,99441.86
2022-10-18T17:34:05.132Z,99442.75
2022-10-18T17:36:33.803Z,99436.24
2022-10-18T17:39:03.063Z,99432.80
2022-10-18T17:41:31.392Z,99429.04
2022-10-18T17:43:59.749Z,99430.59
2022-10-18T17:46:27.947Z,99434.77
2022-10-18T17:49:00.899Z,99435.45
2022-10-18T17:51:28.860Z,99431.99
2022-10-18T17:53:56.741Z,99431.70
2022-10-18T17:56:31.174Z,99429.40
2022-10-18T17:59:05.592Z,99430.09
2022-10-18T18:01:34.467Z,99438.95
2022-10-18T18:04:03.584Z,99443.50
2022-10-18T18:06:39.065Z,99437.11
2022-10-18T18:09:13.196Z,99436.27
2022-10-18T18:11:44.135Z,99434.39
2022-10-18T18:14:12.131Z,99438.19
2022-10-18T18:16:44.041Z,99436.45
2022-10-18T18:19:27.150Z,99440.14
2022-10-18T18:21:59.880Z,99441.23
2022-10-18T18:24:28.866Z,99436.19
2022-10-18T18:27:00.600Z,99431.65
2022-10-18T18:29:30.234Z,99428.71
2022-10-18T18:32:00.562Z,99424.22
2022-10-18T18:34:31.182Z,99420.27
2022-10-18T18:36:59.306Z,99411.23
2022-10-18T18:39:35.305Z,99411.58
2022-10-18T18:42:06.914Z,99408.95
2022-10-18T18:44:38.602Z,99409.70
2022-10-18T18:47:10.875Z,99410.34
2022-10-18T18:49:41.543Z,99411.95
2022-10-18T18:52:09.660Z,99410.61
2022-10-18T18:54:37.392Z,99405.36
2022-10-18T18:57:10.601Z,99409.49
2022-10-18T18:59:38.419Z,99406.73
2022-10-18T19:02:07.279Z,99408.23
2022-10-18T19:04:37.151Z,99407.44
2022-10-18T19:07:04.837Z,99412.68
2022-10-18T19:09:33.015Z,99409.88
2022-10-18T19:12:00.811Z,99408.83
2022-10-18T19:14:29.681Z,99415.57
2022-10-18T19:17:04.925Z,99419.36
2022-10-18T19:19:32.687Z,99420.43
2022-10-18T19:22:03.626Z,99419.16
2022-10-18T19:24:34.731Z,99413.49
2022-10-18T19:27:14.506Z,99415.27
2022-10-18T19:29:42.346Z,99417.33
2022-10-18T19:32:14.286Z,99418.17
2022-10-18T19:34:44.394Z,99416.17
2022-10-18T19:37:17.232Z,99422.07
2022-10-18T19:39:45.069Z,99424.83
2022-10-18T19:42:18.628Z,99419.86
2022-10-18T19:44:48.988Z,99422.52
2022-10-18T19:47:21.409Z,99423.31
2022-10-18T19:49:55.722Z,99422.11
2022-10-18T19:52:23.397Z,99418.38
2022-10-18T19:54:51.186Z,99418.38
2022-10-18T19:57:18.865Z,99418.41
2022-10-18T19:59:47.368Z,99417.66
2022-10-18T20:02:15.282Z,99417.99
2022-10-18T20:04:43.010Z,99419.80
2022-10-18T20:07:11.091Z,99419.14
2022-10-18T20:09:40.095Z,99419.05
2022-10-18T20:12:09.596Z,99417.00
2022-10-18T20:14:37.319Z,99418.14
2022-10-18T20:17:06.074Z,99416.19
2022-10-18T20:19:35.100Z,99416.50
2022-10-18T20:22:03.245Z,99412.64
2022-10-18T20:24:30.981Z,99415.66
2022-10-18T20:26:58.645Z,99414.98
2022-10-18T20:29:26.944Z,99417.62
2022-10-18T20:31:56.331Z,99413.81
2022-10-18T20:34:28.499Z,99416.21
2022-10-18T20:36:56.230Z,99414.73
2022-10-18T20:39:24.978Z,99414.98
2022-10-18T20:41:52.669Z,99412.33
2022-10-18T20:44:22.789Z,99412.54
2022-10-18T20:46:50.699Z,99415.00
2022-10-18T20:49:19.446Z,99410.59
2022-10-18T20:51:49.783Z,99410.25
2022-10-18T20:54:17.399Z,99408.73
2022-10-18T20:56:45.872Z,99409.39
2022-10-18T20:59:14.206Z,99405.88
2022-10-18T21:01:42.098Z,99414.73
2022-10-18T21:04:10.966Z,99416.09
2022-10-18T21:06:42.755Z,99422.41
2022-10-18T21:09:18.908Z,99423.77
2022-10-18T21:11:50.748Z,99420.33
2022-10-18T21:14:20.942Z,99416.25
2022-10-18T21:16:50.526Z,99410.77
2022-10-18T21:19:26.879Z,99412.54
2022-10-18T21:21:58.669Z,99408.55
2022-10-18T21:24:27.898Z,99409.88
2022-10-18T21:26:56.842Z,99413.58
2022-10-18T21:29:25.116Z,99415.95
2022-10-18T21:31:55.794Z,99412.72
2022-10-18T21:34:23.815Z,99413.44
2022-10-18T21:36:53.012Z,99413.17
2022-10-18T21:41:51.978Z,99410.01
2022-10-18T21:44:20.276Z,99418.02
2022-10-18T21:46:48.055Z,99415.95
2022-10-18T21:49:16.510Z,99411.28
2022-10-18T21:51:44.971Z,99416.67
2022-10-18T21:54:16.325Z,99413.11
2022-10-18T21:56:45.410Z,99414.02
2022-10-18T21:59:14.850Z,99416.16
2022-10-18T22:01:44.632Z,99422.61
2022-10-18T22:04:21.845Z,99423.80
2022-10-18T22:06:50.906Z,99426.23
2022-10-18T22:09:21.353Z,99427.21
2022-10-18T22:11:52.928Z,99430.53
2022-10-18T22:14:22.458Z,99436.92
2022-10-18T22:16:51.194Z,99443.65
2022-10-18T22:19:20.391Z,99445.81
2022-10-18T22:21:48.302Z,99454.23
2022-10-18T22:24:17.927Z,99458.48
2022-10-18T22:26:46.533Z,99458.48
2022-10-18T22:29:17.477Z,99464.88
2022-10-18T22:31:51.995Z,99467.05
2022-10-18T22:34:23.041Z,99473.08
2022-10-18T22:36:51.111Z,99474.54
2022-10-18T22:39:19.920Z,99469.70
2022-10-18T22:41:52.485Z,99468.04
2022-10-18T22:44:20.175Z,99459.21
2022-10-18T22:46:47.835Z,99464.03
2022-10-18T22:49:17.333Z,99460.90
2022-10-18T22:51:45.083Z,99466.37
2022-10-18T22:54:15.213Z,99468.05
2022-10-18T22:56:42.851Z,99466.65
2022-10-18T22:59:11.231Z,99475.16
2022-10-18T23:01:38.880Z,99482.55
2022-10-18T23:04:06.816Z,99493.34
2022-10-18T23:06:36.278Z,99492.19
2022-10-18T23:09:07.817Z,99505.96
2022-10-18T23:11:37.137Z,99508.64
2022-10-18T23:14:06.362Z,99516.47
2022-10-18T23:16:35.833Z,99527.11
2022-10-18T23:19:03.747Z,99534.03
2022-10-18T23:21:31.607Z,99528.58
2022-10-18T23:23:59.303Z,99532.59
2022-10-18T23:26:29.561Z,99531.94
2022-10-18T23:28:57.386Z,99527.59
2022-10-18T23:31:28.905Z,99529.61
2022-10-18T23:34:01.275Z,99524.89
2022-10-18T23:36:29.343Z,99527.42
2022-10-18T23:38:57.949Z,99528.81
2022-10-18T23:41:26.839Z,99528.61
2022-10-18T23:43:54.905Z,99528.48
2022-10-18T23:46:22.697Z,99531.98
2022-10-18T23:48:50.654Z,99533.40
2022-10-18T23:51:19.724Z,99534.31
2022-10-18T23:53:47.483Z,99530.66
2022-10-18T23:56:18.159Z,99533.59
2022-10-18T23:58:46.337Z,99534.38
